Decoded Metar for KEHO (SHELBY MUNI in NC, USA) (IATA:EHO) | Meteo·Mobile Aviation Weather
aviador You're here:

KEHO Decoded Metar

SHELBY MUNI in NC, USA
Report Time2019-02-17 16:45:00
UTC Time2019-02-17 17:02:29
Flight Rules mvfr MVFR
Wind060° at 05 kt
W.Decomp.*RWY 05: 4.8 kt HW 1.4 kt RCW
W.Rank060° ranks 14
Current wind is below 060° avg. (5.4)
Visibility9999 m
Phenomena:N/A
Clouds:Overcast 020 Hf
Expected CloudBase > 1,200 ft AGL from Temp-Dew spread
Ceiling2,000 ft
Temp03°C (ISA -10)
Dew Point00°C (81% RH)
AAT-0.8°C
QNH1019 hPa
Density Alt-522 ft
Elevation846 ft
Report Wrong Elevation
Raw Report
METAR KEHO 171645Z AUTO 06005KT 7SM OVC020 03/00 A3009 RMK AO2 T00290002=

Extra information for KEHO:More info

Metar Taf Metar & Taf Last 4 Metars F.Rules Stats Wind Profile Meteogram Temp Stats Airport Information Weather charts Add Link Nearby VenuesMetar ALERT Operation Metar Decoded Social comments

AIRNAV info for KEHO